Time;durP1;ratioP1;P1;durP2;ratioP2;P2;SDS_P1;SDS_P2;PMS_P1;PMS_P2;Temp;Humidity;BMP_temperature;BMP_pressure;BME280_temperature;BME280_humidity;BME280_pressure;Samples;Min_cycle;Max_cycle;Signal;HPM_P1;HPM_P2
2021/11/06 00:00:23;;;;;;;11.48;4.13;;;;;;;7.67;100.00;102793.47;5032480;28;20053;-76
2021/11/06 00:02:51;;;;;;;13.88;4.50;;;;;;;7.66;100.00;102792.56;5028773;28;20060;-76
2021/11/06 00:05:19;;;;;;;10.13;5.00;;;;;;;7.68;100.00;102792.59;5031325;28;20448;-76
2021/11/06 00:07:47;;;;;;;13.05;5.07;;;;;;;7.69;100.00;102791.69;5029193;28;20518;-76
2021/11/06 00:10:16;;;;;;;13.13;3.92;;;;;;;7.63;100.00;102794.31;5033739;28;20056;-76
2021/11/06 00:12:47;;;;;;;9.00;3.90;;;;;;;7.59;100.00;102793.34;5029781;28;20045;-76
2021/11/06 00:15:15;;;;;;;13.35;4.90;;;;;;;7.60;100.00;102791.63;5003745;28;20076;-77
2021/11/06 00:17:44;;;;;;;9.90;4.03;;;;;;;7.60;100.00;102788.97;5025336;28;20389;-76
2021/11/06 00:20:14;;;;;;;10.23;4.72;;;;;;;7.62;100.00;102790.75;5024816;28;20139;-76
2021/11/06 00:22:43;;;;;;;10.52;5.07;;;;;;;7.59;100.00;102792.47;5029437;28;20053;-76
2021/11/06 00:25:12;;;;;;;11.80;4.35;;;;;;;7.55;100.00;102783.56;5024487;28;20052;-76
2021/11/06 00:27:42;;;;;;;9.77;4.35;;;;;;;7.52;100.00;102796.81;5030276;28;20538;-77
2021/11/06 00:30:14;;;;;;;9.52;4.68;;;;;;;7.49;100.00;102796.78;5021801;28;20055;-76
2021/11/06 00:32:44;;;;;;;11.75;4.50;;;;;;;7.47;100.00;102794.13;5029682;28;20615;-76
2021/11/06 00:35:14;;;;;;;12.15;5.05;;;;;;;7.45;100.00;102795.84;5024276;28;20041;-76
2021/11/06 00:37:43;;;;;;;9.20;5.18;;;;;;;7.43;100.00;102794.94;5023036;28;20084;-76
2021/11/06 00:40:13;;;;;;;15.05;4.88;;;;;;;7.42;100.00;102794.94;5029188;28;20041;-76
2021/11/06 00:42:41;;;;;;;11.93;5.85;;;;;;;7.41;100.00;102796.69;5022861;28;20543;-76
2021/11/06 00:45:11;;;;;;;9.68;4.50;;;;;;;7.42;100.00;102797.59;5030082;28;20469;-76
2021/11/06 00:47:40;;;;;;;9.27;5.35;;;;;;;7.41;100.00;102795.81;5020677;28;20061;-76
2021/11/06 00:50:10;;;;;;;12.20;6.20;;;;;;;7.41;100.00;102795.81;5026441;28;20124;-76
2021/11/06 00:52:38;;;;;;;16.10;5.80;;;;;;;7.39;100.00;102800.19;5030825;28;20037;-67
2021/11/06 00:55:07;;;;;;;10.00;5.00;;;;;;;7.38;100.00;102794.00;5025141;28;20148;-68
2021/11/06 00:57:35;;;;;;;15.68;5.70;;;;;;;7.38;100.00;102796.66;5029615;28;20145;-67
2021/11/06 01:00:05;;;;;;;12.80;5.90;;;;;;;7.35;100.00;102796.63;5024171;28;20050;-67
2021/11/06 01:02:34;;;;;;;12.70;5.10;;;;;;;7.37;100.00;102786.00;5030145;28;20293;-67
2021/11/06 01:05:04;;;;;;;14.45;6.88;;;;;;;7.38;100.00;102788.69;5023539;28;20136;-67
2021/11/06 01:07:32;;;;;;;13.05;5.78;;;;;;;7.45;100.00;102784.34;5019440;28;20489;-67
2021/11/06 01:10:00;;;;;;;10.90;5.15;;;;;;;7.44;100.00;102779.91;5029812;28;20048;-67
2021/11/06 01:12:28;;;;;;;15.73;6.07;;;;;;;7.45;100.00;102784.34;5022503;28;20420;-67
2021/11/06 01:14:56;;;;;;;14.82;6.28;;;;;;;7.44;100.00;102782.56;5030024;28;20098;-76
2021/11/06 01:17:24;;;;;;;11.73;6.20;;;;;;;7.42;100.00;102776.34;5024038;28;20048;-75
2021/11/06 01:20:00;;;;;;;11.57;5.95;;;;;;;7.41;100.00;102772.78;5022585;28;20057;-76
2021/11/06 01:22:28;;;;;;;14.15;6.05;;;;;;;7.42;100.00;102766.63;5033060;28;20445;-76
2021/11/06 01:24:56;;;;;;;14.82;5.93;;;;;;;7.43;100.00;102768.38;5023358;28;20049;-76
2021/11/06 01:27:24;;;;;;;14.80;6.00;;;;;;;7.41;100.00;102778.09;5029076;28;20053;-76
2021/11/06 01:29:52;;;;;;;14.15;6.25;;;;;;;7.42;100.00;102765.72;5024572;28;20098;-76
2021/11/06 01:32:20;;;;;;;13.55;6.18;;;;;;;7.41;100.00;102763.94;5023967;28;20056;-76
2021/11/06 01:34:48;;;;;;;13.43;6.32;;;;;;;7.43;100.00;102780.78;5029703;28;20468;-75
2021/11/06 01:37:18;;;;;;;15.57;6.63;;;;;;;7.43;100.00;102768.38;5024000;28;20045;-76
2021/11/06 01:39:47;;;;;;;12.15;6.68;;;;;;;7.42;100.00;102766.63;5028170;28;20238;-76
2021/11/06 01:42:15;;;;;;;11.95;6.32;;;;;;;7.44;100.00;102772.84;5019150;28;20504;-76
2021/11/06 01:44:43;;;;;;;14.15;6.35;;;;;;;7.42;100.00;102776.34;5029181;28;20050;-76
2021/11/06 01:47:11;;;;;;;16.88;7.57;;;;;;;7.42;100.00;102766.63;5024271;28;20400;-76
2021/11/06 01:49:39;;;;;;;15.95;7.68;;;;;;;7.41;100.00;102772.78;5021774;28;20115;-76
2021/11/06 01:52:08;;;;;;;20.15;8.00;;;;;;;7.42;100.00;102765.72;5028911;28;20076;-76
2021/11/06 01:54:37;;;;;;;11.93;6.82;;;;;;;7.39;100.00;102769.25;5021413;28;20595;-78
2021/11/06 01:57:05;;;;;;;19.42;7.82;;;;;;;7.37;100.00;102759.44;5028760;28;20060;-76
2021/11/06 01:59:34;;;;;;;15.45;7.78;;;;;;;7.38;100.00;102769.22;5021774;28;20132;-76
2021/11/06 02:02:03;;;;;;;17.63;8.55;;;;;;;7.37;100.00;102772.72;5025847;28;20448;-76
2021/11/06 02:04:31;;;;;;;15.55;7.72;;;;;;;7.37;100.00;102765.69;5028973;28;20041;-78
2021/11/06 02:06:59;;;;;;;14.73;7.55;;;;;;;7.37;100.00;102770.06;5022304;28;20300;-76
2021/11/06 02:09:27;;;;;;;13.05;7.47;;;;;;;7.37;100.00;102762.09;5029430;28;20072;-76
2021/11/06 02:11:58;;;;;;;16.33;7.95;;;;;;;7.40;100.00;102756.84;5021254;28;20136;-76
2021/11/06 02:14:26;;;;;;;14.15;7.20;;;;;;;7.48;100.00;102760.47;5028419;28;20517;-78
2021/11/06 02:16:54;;;;;;;17.33;8.00;;;;;;;7.48;100.00;102753.41;5022732;28;20080;-76
2021/11/06 02:19:27;;;;;;;12.70;6.90;;;;;;;7.54;100.00;102754.34;5022534;28;20489;-78
2021/11/06 02:21:58;;;;;;;17.73;9.82;;;;;;;7.54;100.00;102755.22;5028731;28;20045;-76
2021/11/06 02:24:26;;;;;;;20.20;8.60;;;;;;;7.54;100.00;102749.91;5018730;28;20045;-68
2021/11/06 02:26:55;;;;;;;23.10;9.07;;;;;;;7.55;100.00;102758.78;5028151;28;20067;-68
2021/11/06 02:29:24;;;;;;;19.48;8.57;;;;;;;7.57;100.00;102749.06;5021655;28;20250;-68
2021/11/06 02:31:58;;;;;;;19.15;9.75;;;;;;;7.58;100.00;102748.19;5026415;28;20060;-68
2021/11/06 02:34:26;;;;;;;20.95;8.88;;;;;;;7.56;100.00;102750.84;5023499;28;20430;-68
2021/11/06 02:36:55;;;;;;;19.65;9.60;;;;;;;7.60;100.00;102749.09;5021835;28;21057;-67
2021/11/06 02:39:26;;;;;;;20.63;9.60;;;;;;;7.66;100.00;102759.78;5031023;28;20526;-67
2021/11/06 02:42:00;;;;;;;21.95;9.65;;;;;;;7.61;100.00;102751.78;5038318;28;20088;-69
2021/11/06 02:44:28;;;;;;;21.80;9.70;;;;;;;7.60;100.00;102754.41;5027374;28;20679;-69
2021/11/06 02:46:57;;;;;;;20.48;9.32;;;;;;;7.58;100.00;102762.38;5024985;28;20191;-69
2021/11/06 02:49:26;;;;;;;16.77;9.60;;;;;;;7.60;100.00;102765.03;5020632;28;20128;-68
2021/11/06 02:51:55;;;;;;;20.52;9.95;;;;;;;7.61;100.00;102753.53;5027314;28;20049;-67
2021/11/06 02:54:25;;;;;;;17.98;8.60;;;;;;;7.63;100.00;102752.69;5018867;28;20068;-67
2021/11/06 02:56:54;;;;;;;16.60;9.30;;;;;;;7.65;100.00;102748.25;5030169;28;20483;-68
2021/11/06 02:59:23;;;;;;;16.90;9.43;;;;;;;7.70;100.00;102740.34;5023995;28;20048;-68
2021/11/06 03:01:52;;;;;;;20.02;9.50;;;;;;;7.69;100.00;102743.00;5028986;28;20115;-68
2021/11/06 03:04:19;;;;;;;16.52;9.02;;;;;;;7.67;100.00;102742.97;5025360;28;20452;-68
2021/11/06 03:06:49;;;;;;;17.23;9.02;;;;;;;7.74;100.00;102741.28;5022718;28;20328;-68
2021/11/06 03:09:17;;;;;;;20.95;8.85;;;;;;;7.76;100.00;102743.06;5031580;28;20061;-68
2021/11/06 03:11:47;;;;;;;16.50;9.98;;;;;;;7.72;100.00;102749.22;5022887;28;20057;-68
2021/11/06 03:14:16;;;;;;;16.42;9.45;;;;;;;7.74;100.00;102751.91;5023817;28;20073;-68
2021/11/06 03:16:44;;;;;;;21.85;9.43;;;;;;;7.72;100.00;102751.00;5021241;28;20096;-68
2021/11/06 03:19:12;;;;;;;22.08;10.25;;;;;;;7.71;100.00;102739.44;5021061;28;20110;-68
2021/11/06 03:21:40;;;;;;;21.13;11.50;;;;;;;7.70;100.00;102739.47;5034618;28;20084;-68
2021/11/06 03:24:08;;;;;;;15.48;9.85;;;;;;;7.70;100.00;102740.34;5027160;28;20056;-68
2021/11/06 03:26:36;;;;;;;20.08;10.98;;;;;;;7.71;100.00;102742.09;5034180;28;20049;-68
2021/11/06 03:29:06;;;;;;;21.60;10.75;;;;;;;7.74;100.00;102730.63;5025500;28;20133;-68
2021/11/06 03:31:36;;;;;;;20.80;11.30;;;;;;;7.71;100.00;102744.78;5023035;28;20095;-68
2021/11/06 03:34:04;;;;;;;23.52;11.35;;;;;;;7.72;100.00;102737.72;5029092;28;20044;-68
2021/11/06 03:36:32;;;;;;;22.38;11.27;;;;;;;7.74;100.00;102741.28;5026451;28;20573;-68
2021/11/06 03:39:00;;;;;;;22.17;11.45;;;;;;;7.78;100.00;102743.97;5031522;28;20116;-68
2021/11/06 03:41:29;;;;;;;23.73;11.38;;;;;;;7.80;100.00;102736.03;5025569;28;20076;-68
2021/11/06 03:43:57;;;;;;;19.52;10.60;;;;;;;7.85;100.00;102740.50;5029952;28;20123;-68
2021/11/06 03:46:28;;;;;;;22.33;10.48;;;;;;;7.82;100.00;102731.59;5027742;28;20087;-68
2021/11/06 03:48:56;;;;;;;22.33;12.27;;;;;;;7.83;100.00;102733.38;5026443;28;20472;-68
2021/11/06 03:51:24;;;;;;;22.33;11.48;;;;;;;7.84;100.00;102730.72;5033578;28;20369;-68
2021/11/06 03:53:52;;;;;;;23.70;10.82;;;;;;;7.83;100.00;102734.28;5020788;28;20052;-68
2021/11/06 03:56:20;;;;;;;20.92;11.95;;;;;;;7.85;100.00;102731.66;5031375;28;20049;-68
2021/11/06 03:58:48;;;;;;;25.55;12.20;;;;;;;7.86;100.00;102728.09;5023342;28;20049;-68
2021/11/06 04:01:17;;;;;;;24.02;12.25;;;;;;;7.91;100.00;102721.03;5030440;28;20464;-68
2021/11/06 04:03:46;;;;;;;17.90;10.48;;;;;;;7.90;100.00;102719.28;5022033;28;20049;-68
2021/11/06 04:06:15;;;;;;;32.25;12.73;;;;;;;7.88;100.00;102725.44;5025544;28;20073;-68
2021/11/06 04:08:43;;;;;;;27.15;11.98;;;;;;;7.89;100.00;102725.47;5033515;28;20059;-68
2021/11/06 04:11:11;;;;;;;26.48;11.75;;;;;;;7.89;100.00;102725.47;5023750;28;20091;-68
2021/11/06 04:13:39;;;;;;;21.60;11.90;;;;;;;7.85;100.00;102727.22;5031589;28;20460;-68
2021/11/06 04:16:07;;;;;;;23.88;12.00;;;;;;;7.85;100.00;102724.56;5027729;28;20132;-68
2021/11/06 04:18:35;;;;;;;21.63;11.13;;;;;;;7.85;100.00;102721.91;5024942;28;20126;-68
2021/11/06 04:21:05;;;;;;;23.27;11.68;;;;;;;7.84;100.00;102722.75;5031619;28;20477;-68
2021/11/06 04:23:33;;;;;;;28.25;12.68;;;;;;;7.87;100.00;102735.19;5022741;28;20111;-68
2021/11/06 04:26:01;;;;;;;22.08;11.20;;;;;;;7.86;100.00;102730.75;5030806;28;20445;-68
2021/11/06 04:28:31;;;;;;;20.52;10.93;;;;;;;7.86;100.00;102725.44;5020709;28;20056;-68
2021/11/06 04:30:59;;;;;;;27.92;12.80;;;;;;;7.90;100.00;102737.91;5029427;28;20044;-69
2021/11/06 04:33:28;;;;;;;20.85;11.70;;;;;;;7.93;100.00;102739.66;5023798;28;20520;-69
2021/11/06 04:35:56;;;;;;;27.00;12.15;;;;;;;7.92;100.00;102743.22;5022850;28;20126;-69
2021/11/06 04:38:26;;;;;;;22.25;11.80;;;;;;;7.97;100.00;102742.38;5029211;28;20123;-68
2021/11/06 04:40:54;;;;;;;24.83;11.95;;;;;;;7.99;100.00;102737.09;5022384;28;20160;-68
2021/11/06 04:43:21;;;;;;;22.63;11.48;;;;;;;7.99;100.00;102745.94;5030605;28;20048;-68
2021/11/06 04:45:49;;;;;;;22.67;11.75;;;;;;;8.00;100.00;102738.84;5022817;28;20072;-68
2021/11/06 04:48:18;;;;;;;24.00;12.25;;;;;;;8.01;100.00;102735.31;5021858;28;20504;-68
2021/11/06 04:50:46;;;;;;;23.85;11.25;;;;;;;8.00;100.00;102726.47;5031203;28;20061;-68
2021/11/06 04:53:15;;;;;;;22.67;12.20;;;;;;;8.00;100.00;102728.22;5021848;28;20045;-68
2021/11/06 04:55:44;;;;;;;25.48;11.75;;;;;;;7.99;100.00;102735.31;5031853;28;20045;-68
2021/11/06 04:58:12;;;;;;;25.50;13.15;;;;;;;8.00;100.00;102730.88;5023540;28;20072;-68
2021/11/06 05:00:40;;;;;;;28.20;12.85;;;;;;;7.98;100.00;102736.16;5020868;28;23100;-68
2021/11/06 05:03:11;;;;;;;26.08;12.75;;;;;;;7.99;100.00;102729.09;5029446;28;20144;-69
2021/11/06 05:05:42;;;;;;;23.60;12.30;;;;;;;7.99;100.00;102729.09;5020367;28;20140;-68
2021/11/06 05:08:13;;;;;;;32.90;14.18;;;;;;;7.97;100.00;102718.47;5031666;28;20388;-68
2021/11/06 05:10:43;;;;;;;28.67;14.68;;;;;;;7.93;100.00;102719.28;5022814;28;20049;-68
2021/11/06 05:13:12;;;;;;;31.17;14.30;;;;;;;7.97;100.00;102717.56;5030654;28;20470;-68
2021/11/06 05:15:40;;;;;;;31.17;15.40;;;;;;;7.96;100.00;102716.66;5023834;28;20053;-68
2021/11/06 05:18:09;;;;;;;24.17;12.63;;;;;;;7.95;100.00;102722.88;5028355;28;20115;-68
2021/11/06 05:20:43;;;;;;;32.58;14.35;;;;;;;7.93;100.00;102719.28;5024554;28;20094;-68
2021/11/06 05:23:14;;;;;;;29.35;15.15;;;;;;;7.95;100.00;102717.56;5021191;28;20045;-68
2021/11/06 05:25:51;;;;;;;28.88;14.95;;;;;;;7.91;100.00;102725.47;5028386;28;20057;-70
2021/11/06 05:28:22;;;;;;;28.50;14.45;;;;;;;7.92;100.00;102721.97;5023615;28;20106;-68
2021/11/06 05:30:50;;;;;;;26.52;14.98;;;;;;;7.88;100.00;102723.66;5030102;28;20056;-68
2021/11/06 05:33:18;;;;;;;29.73;15.02;;;;;;;7.90;100.00;102723.69;5023090;28;20053;-68
2021/11/06 05:35:47;;;;;;;26.67;13.85;;;;;;;7.88;100.00;102726.34;5021336;28;20056;-68
2021/11/06 05:38:15;;;;;;;23.48;13.07;;;;;;;7.89;100.00;102727.25;5031569;28;20566;-68
2021/11/06 05:40:47;;;;;;;26.15;15.10;;;;;;;7.85;100.00;102732.53;5021156;28;20164;-69
2021/11/06 05:43:16;;;;;;;29.40;15.77;;;;;;;7.83;100.00;102731.63;5025488;28;20551;-70
2021/11/06 05:45:52;;;;;;;28.70;14.68;;;;;;;7.82;100.00;102727.19;5021306;28;20493;-70
2021/11/06 05:48:28;;;;;;;28.02;15.07;;;;;;;7.81;100.00;102725.38;5028553;28;20054;-70
2021/11/06 05:50:56;;;;;;;25.10;15.05;;;;;;;7.79;100.00;102721.81;5024924;28;20237;-75
2021/11/06 05:53:25;;;;;;;26.80;15.57;;;;;;;7.81;100.00;102714.75;5023043;28;20132;-76
2021/11/06 05:55:56;;;;;;;29.75;15.18;;;;;;;7.79;100.00;102724.47;5029282;28;20045;-69
2021/11/06 05:58:28;;;;;;;30.48;15.20;;;;;;;7.77;100.00;102723.59;5020478;28;20065;-68
2021/11/06 06:00:57;;;;;;;28.73;15.55;;;;;;;7.77;100.00;102715.63;5028383;28;20051;-75
2021/11/06 06:03:26;;;;;;;26.65;14.93;;;;;;;7.77;100.00;102712.94;5024746;28;20440;-76
2021/11/06 06:05:54;;;;;;;31.17;14.88;;;;;;;7.77;100.00;102712.94;5023223;28;20403;-76
2021/11/06 06:08:22;;;;;;;26.90;16.27;;;;;;;7.78;100.00;102714.75;5032511;28;20052;-76
2021/11/06 06:10:50;;;;;;;29.63;15.85;;;;;;;7.81;100.00;102719.19;5021950;28;20053;-76
2021/11/06 06:13:19;;;;;;;25.60;14.82;;;;;;;7.82;100.00;102715.66;5029554;28;20180;-77
2021/11/06 06:15:48;;;;;;;29.27;15.43;;;;;;;7.80;100.00;102705.00;5022756;28;20053;-75
2021/11/06 06:18:16;;;;;;;27.58;14.88;;;;;;;7.80;100.00;102701.47;5022747;28;20049;-75
2021/11/06 06:20:44;;;;;;;32.22;16.75;;;;;;;7.82;100.00;102703.25;5029563;28;20053;-75
2021/11/06 06:23:12;;;;;;;25.00;15.52;;;;;;;7.83;100.00;102698.81;5021211;28;20045;-75
2021/11/06 06:25:40;;;;;;;28.98;15.20;;;;;;;7.81;100.00;102696.16;5027006;28;20477;-75
2021/11/06 06:28:09;;;;;;;24.48;14.18;;;;;;;7.84;100.00;102698.84;5021599;28;20045;-76
2021/11/06 06:30:40;;;;;;;32.55;15.93;;;;;;;7.89;100.00;102706.84;5028729;28;20049;-76
2021/11/06 06:33:10;;;;;;;27.73;15.30;;;;;;;7.84;100.00;102706.81;5024345;28;20145;-76
2021/11/06 06:35:39;;;;;;;26.13;14.75;;;;;;;7.84;100.00;102711.25;5026029;28;20042;-76
2021/11/06 06:38:07;;;;;;;29.58;14.95;;;;;;;7.86;100.00;102715.69;5030534;28;20111;-76
2021/11/06 06:40:36;;;;;;;27.10;15.65;;;;;;;7.87;100.00;102713.94;5021259;28;20057;-74
2021/11/06 06:43:07;;;;;;;28.42;15.30;;;;;;;7.86;100.00;102713.03;5029709;28;20179;-77
2021/11/06 06:45:35;;;;;;;28.58;15.45;;;;;;;7.85;100.00;102707.72;5022225;28;20053;-77
2021/11/06 06:48:03;;;;;;;27.98;15.05;;;;;;;7.83;100.00;102709.44;5022645;28;20417;-75
2021/11/06 06:50:33;;;;;;;24.23;13.82;;;;;;;7.84;100.00;102714.78;5029962;28;20316;-75
2021/11/06 06:53:01;;;;;;;26.85;13.95;;;;;;;7.78;100.00;102706.78;5022766;28;20474;-75
2021/11/06 06:55:29;;;;;;;28.23;14.63;;;;;;;7.76;100.00;102705.84;5033623;28;20124;-75
2021/11/06 06:57:58;;;;;;;24.13;14.07;;;;;;;7.73;100.00;102705.84;5027012;28;20053;-75
2021/11/06 07:00:26;;;;;;;29.30;14.43;;;;;;;7.75;100.00;102703.19;5032415;28;20084;-75
2021/11/06 07:02:54;;;;;;;26.85;13.95;;;;;;;7.77;100.00;102712.06;5027904;28;20053;-75
2021/11/06 07:05:22;;;;;;;28.40;14.73;;;;;;;7.76;100.00;102711.16;5024549;28;20056;-75
2021/11/06 07:07:52;;;;;;;23.73;13.10;;;;;;;7.81;100.00;102720.06;5035240;28;20049;-77
2021/11/06 07:10:21;;;;;;;27.67;13.55;;;;;;;7.83;100.00;102718.34;5025248;28;20072;-77
2021/11/06 07:12:49;;;;;;;26.48;13.90;;;;;;;7.82;100.00;102718.31;5033458;28;20119;-75
2021/11/06 07:15:17;;;;;;;26.83;15.77;;;;;;;7.84;100.00;102720.09;5025470;28;20052;-75
2021/11/06 07:17:45;;;;;;;27.70;13.80;;;;;;;7.91;100.00;102722.81;5030786;28;20125;-76
2021/11/06 07:20:14;;;;;;;26.55;15.15;;;;;;;7.92;100.00;102714.00;5028517;28;20477;-76
2021/11/06 07:22:43;;;;;;;26.05;14.50;;;;;;;7.93;100.00;102723.72;5027033;28;22025;-76
2021/11/06 07:25:14;;;;;;;28.83;14.32;;;;;;;7.93;100.00;102726.38;5032722;28;20175;-76
2021/11/06 07:27:42;;;;;;;27.25;13.90;;;;;;;7.95;100.00;102725.53;5025626;28;20049;-74
2021/11/06 07:30:13;;;;;;;22.50;12.52;;;;;;;7.96;100.00;102726.41;5032098;28;20064;-76
2021/11/06 07:32:41;;;;;;;23.33;12.95;;;;;;;8.00;100.00;102729.13;5025993;28;20107;-74
2021/11/06 07:35:09;;;;;;;21.60;12.90;;;;;;;8.01;100.00;102724.69;5029921;28;20515;-74
2021/11/06 07:37:38;;;;;;;24.15;12.38;;;;;;;8.02;100.00;102726.47;5031446;28;20121;-74
2021/11/06 07:40:08;;;;;;;26.92;13.07;;;;;;;8.05;100.00;102723.81;5024416;28;20063;-74
2021/11/06 07:42:40;;;;;;;22.80;12.02;;;;;;;8.11;100.00;102721.22;5031102;28;21466;-67
2021/11/06 07:45:10;;;;;;;23.52;13.45;;;;;;;8.21;100.00;102722.19;5022605;28;20049;-67
2021/11/06 07:47:43;;;;;;;23.00;12.18;;;;;;;8.20;100.00;102723.94;5030431;28;20080;-68
2021/11/06 07:50:13;;;;;;;20.02;12.27;;;;;;;8.27;100.00;102729.31;5026079;28;20523;-68
2021/11/06 07:52:41;;;;;;;22.70;12.45;;;;;;;8.29;100.00;102723.16;5025256;28;20095;-68
2021/11/06 07:55:10;;;;;;;22.25;11.98;;;;;;;8.34;100.00;102716.09;5032110;28;20053;-68
2021/11/06 07:57:42;;;;;;;21.20;11.77;;;;;;;8.33;100.00;102716.97;5026407;28;20049;-69
2021/11/06 08:00:15;;;;;;;19.17;10.85;;;;;;;8.34;100.00;102713.44;5030627;28;20057;-68
2021/11/06 08:02:45;;;;;;;25.35;11.95;;;;;;;8.35;100.00;102711.66;5029617;28;20576;-68
2021/11/06 08:05:17;;;;;;;18.88;11.32;;;;;;;8.34;100.00;102713.44;5026792;28;20974;-75
2021/11/06 08:07:46;;;;;;;17.80;11.15;;;;;;;8.38;100.00;102709.03;5034396;28;20057;-75
2021/11/06 08:10:17;;;;;;;17.48;10.23;;;;;;;8.37;100.00;102723.19;5026038;28;20072;-75
2021/11/06 08:12:46;;;;;;;19.98;10.18;;;;;;;8.41;100.00;102720.56;5031627;28;20062;-75
2021/11/06 08:15:16;;;;;;;17.73;10.10;;;;;;;8.48;100.00;102718.88;5025758;28;20136;-75
2021/11/06 08:17:46;;;;;;;20.65;10.65;;;;;;;8.50;100.00;102716.22;5030607;28;20150;-75
2021/11/06 08:20:15;;;;;;;17.27;10.50;;;;;;;8.52;100.00;102720.66;5029780;28;20095;-75
2021/11/06 08:22:46;;;;;;;17.77;9.90;;;;;;;8.57;100.00;102715.38;5022703;28;20053;-75
2021/11/06 08:25:16;;;;;;;16.40;10.20;;;;;;;8.63;100.00;102707.41;5029024;28;20443;-74
2021/11/06 08:27:48;;;;;;;19.23;9.98;;;;;;;8.75;100.00;102717.25;5024548;28;20045;-75
2021/11/06 08:30:17;;;;;;;23.02;10.57;;;;;;;8.83;100.00;102706.66;5030348;28;20045;-74
2021/11/06 08:32:47;;;;;;;17.10;10.23;;;;;;;8.79;100.00;102698.66;5024917;28;20746;-75
2021/11/06 08:35:17;;;;;;;14.57;9.68;;;;;;;8.81;100.00;102705.75;5024630;28;20451;-74
2021/11/06 08:37:47;;;;;;;17.23;9.88;;;;;;;8.80;100.00;102707.50;5030534;28;20056;-75
2021/11/06 08:40:17;;;;;;;18.88;9.13;;;;;;;8.85;100.00;102704.88;5021630;28;20064;-75
2021/11/06 08:42:47;;;;;;;17.10;9.15;;;;;;;8.88;100.00;102713.75;5031309;28;20720;-75
2021/11/06 08:45:17;;;;;;;17.52;9.82;;;;;;;8.92;100.00;102710.25;5023406;28;20050;-75
2021/11/06 08:47:46;;;;;;;21.77;9.00;;;;;;;9.02;100.00;102707.63;5022707;28;20072;-75
2021/11/06 08:50:16;;;;;;;15.57;7.30;;;;;;;9.13;100.00;102697.91;5030874;28;20049;-75
2021/11/06 08:52:46;;;;;;;13.45;6.20;;;;;;;9.17;100.00;102707.69;5022583;28;20152;-74
2021/11/06 08:55:14;;;;;;;14.43;6.35;;;;;;;9.29;100.00;102706.81;5029663;28;20544;-75
2021/11/06 08:57:48;;;;;;;12.95;6.30;;;;;;;9.33;100.00;102709.50;5024111;28;20037;-74
2021/11/06 09:00:22;;;;;;;15.77;6.88;;;;;;;9.42;100.00;102708.66;5025230;28;20440;-75
2021/11/06 09:02:50;;;;;;;14.43;6.20;;;;;;;9.51;100.00;102706.00;5031887;28;20176;-75
2021/11/06 09:05:19;;;;;;;14.82;5.93;;;;;;;9.59;100.00;102697.16;5020360;28;20131;-72
2021/11/06 09:07:49;;;;;;;17.95;6.38;;;;;;;9.68;100.00;102700.69;5031627;28;20045;-74
2021/11/06 09:10:20;;;;;;;13.75;6.10;;;;;;;9.75;99.87;102698.91;5023554;28;20099;-76
2021/11/06 09:12:50;;;;;;;13.38;6.55;;;;;;;9.79;99.85;102694.47;5029134;28;20088;-76
2021/11/06 09:15:20;;;;;;;11.23;5.28;;;;;;;9.76;98.60;102694.50;5022131;28;20049;-74
2021/11/06 09:17:50;;;;;;;14.07;6.22;;;;;;;9.78;99.29;102688.25;5021407;28;20052;-74
2021/11/06 09:20:20;;;;;;;12.82;6.07;;;;;;;9.78;98.19;102680.28;5029009;28;20063;-74
2021/11/06 09:22:51;;;;;;;13.85;5.70;;;;;;;9.77;98.38;102681.16;5023159;28;20053;-74
2021/11/06 09:25:21;;;;;;;18.25;6.05;;;;;;;9.75;97.97;102680.25;5029815;28;20056;-76
2021/11/06 09:27:50;;;;;;;15.63;5.68;;;;;;;9.70;98.26;102672.28;5022101;28;20314;-76
2021/11/06 09:30:20;;;;;;;13.23;5.90;;;;;;;9.68;98.06;102678.47;5027069;28;20056;-74
2021/11/06 09:32:50;;;;;;;12.95;5.53;;;;;;;9.64;98.07;102672.25;5024112;28;20088;-74
2021/11/06 09:35:19;;;;;;;14.38;5.65;;;;;;;9.65;97.49;102676.72;5023137;28;20503;-74
2021/11/06 09:37:47;;;;;;;13.48;6.18;;;;;;;9.62;97.47;102683.78;5031714;28;20781;-73
2021/11/06 09:40:17;;;;;;;13.32;5.95;;;;;;;9.60;97.87;102674.91;5022568;28;20136;-74
2021/11/06 09:42:45;;;;;;;15.05;6.88;;;;;;;9.58;97.81;102671.38;5027565;28;20053;-74
2021/11/06 09:45:16;;;;;;;10.93;6.43;;;;;;;9.57;98.00;102681.16;5023844;28;20073;-74
2021/11/06 09:47:45;;;;;;;13.13;6.20;;;;;;;9.59;98.20;102675.81;5022028;28;20045;-74
2021/11/06 09:50:15;;;;;;;13.48;6.22;;;;;;;9.67;98.30;102679.34;5027083;28;20068;-74
2021/11/06 09:52:44;;;;;;;13.65;6.10;;;;;;;9.67;97.52;102684.69;5018171;28;20505;-74
2021/11/06 09:55:12;;;;;;;14.20;6.47;;;;;;;9.68;97.42;102686.47;5028272;28;20535;-74
2021/11/06 09:57:46;;;;;;;13.13;5.78;;;;;;;9.75;98.14;102679.38;5020742;28;20049;-74
2021/11/06 10:00:18;;;;;;;14.73;6.95;;;;;;;9.87;97.81;102687.38;5022207;28;20045;-74
2021/11/06 10:02:49;;;;;;;12.63;6.13;;;;;;;9.88;96.65;102683.84;5031963;28;20163;-74
2021/11/06 10:05:18;;;;;;;13.65;5.90;;;;;;;9.88;97.15;102681.16;5023255;28;20701;-74
2021/11/06 10:07:46;;;;;;;12.77;6.00;;;;;;;9.88;97.06;102674.03;5025076;28;20091;-74
2021/11/06 10:10:16;;;;;;;13.27;6.38;;;;;;;9.90;97.72;102666.94;5021821;28;20485;-74
2021/11/06 10:12:48;;;;;;;13.90;7.25;;;;;;;9.92;97.13;102669.59;5027117;28;20056;-74
2021/11/06 10:15:19;;;;;;;12.15;5.85;;;;;;;9.94;96.51;102662.47;5023388;28;20064;-74
2021/11/06 10:17:48;;;;;;;11.13;5.32;;;;;;;10.01;96.15;102663.38;5020845;28;20056;-74
2021/11/06 10:20:27;;;;;;;11.38;5.93;;;;;;;10.00;96.04;102659.81;5029313;28;20073;-67
2021/11/06 10:22:57;;;;;;;14.40;6.65;;;;;;;10.09;95.75;102670.47;5021409;28;20063;-74
2021/11/06 10:25:27;;;;;;;13.05;6.22;;;;;;;10.13;95.61;102675.81;5028818;28;20074;-67
2021/11/06 10:27:57;;;;;;;16.05;6.90;;;;;;;10.17;95.60;102667.81;5021417;28;20049;-67
2021/11/06 10:30:29;;;;;;;14.88;6.53;;;;;;;10.30;95.67;102674.03;5027861;28;20521;-74
2021/11/06 10:33:04;;;;;;;13.60;6.18;;;;;;;10.31;95.37;102666.91;5033965;28;20545;-66
2021/11/06 10:35:36;;;;;;;11.27;6.15;;;;;;;10.36;95.50;102666.03;5027472;28;20053;-69
2021/11/06 10:38:09;;;;;;;12.70;6.35;;;;;;;10.37;94.69;102666.91;5032343;28;20076;-68
2021/11/06 10:40:42;;;;;;;16.93;6.70;;;;;;;10.34;94.61;102665.16;5024909;28;20053;-69
2021/11/06 10:43:15;;;;;;;14.70;7.55;;;;;;;10.33;95.06;102667.81;5025211;28;20049;-66
2021/11/06 10:45:48;;;;;;;13.63;6.10;;;;;;;10.33;95.34;102667.81;5036757;28;20067;-67
2021/11/06 10:48:18;;;;;;;11.35;5.95;;;;;;;10.30;94.91;102663.34;5023693;28;20053;-66
2021/11/06 10:50:57;;;;;;;10.95;6.10;;;;;;;10.39;94.91;102668.69;5031918;28;20078;-67
2021/11/06 10:53:46;;;;;;;11.15;6.57;;;;;;;10.48;94.95;102657.09;5026316;28;20140;-67
2021/11/06 10:56:41;;;;;;;11.00;5.25;;;;;;;10.45;94.87;102654.44;5024734;28;20053;-68
2021/11/06 10:59:12;;;;;;;11.15;5.55;;;;;;;10.48;94.60;102653.56;5031174;28;20045;-69
2021/11/06 11:01:44;;;;;;;11.32;6.15;;;;;;;10.49;94.96;102645.56;5024035;28;20489;-67
2021/11/06 11:04:16;;;;;;;19.85;6.10;;;;;;;10.55;94.54;102656.19;5025400;28;20091;-66
2021/11/06 11:06:46;;;;;;;11.70;6.35;;;;;;;10.55;94.76;102640.16;5033842;28;20500;-66
2021/11/06 11:09:17;;;;;;;15.10;6.28;;;;;;;10.69;94.54;102639.25;5027436;28;20348;-66
2021/11/06 11:11:46;;;;;;;13.35;6.78;;;;;;;10.72;94.27;102640.09;5031881;28;20048;-68
2021/11/06 11:14:18;;;;;;;14.88;6.60;;;;;;;10.73;93.83;102630.34;5025791;28;20049;-75
2021/11/06 11:16:56;;;;;;;11.48;6.40;;;;;;;10.68;93.69;102624.13;5030805;28;20053;-66
2021/11/06 11:19:38;;;;;;;12.52;6.10;;;;;;;10.78;94.49;102620.53;5027752;28;20052;-68
2021/11/06 11:22:08;;;;;;;13.25;6.63;;;;;;;10.74;94.23;102622.28;5021624;28;20558;-68
2021/11/06 11:24:36;;;;;;;13.70;7.38;;;;;;;10.79;94.20;102624.94;5028671;28;21542;-67